createdAt,value
2022-11-24T00:01:09.032Z,26.85
2022-11-24T00:03:37.055Z,27.15
2022-11-24T00:06:11.100Z,24.10
2022-11-24T00:08:39.243Z,25.13
2022-11-24T00:11:08.596Z,24.48
2022-11-24T00:13:39.021Z,25.88
2022-11-24T00:16:10.056Z,26.75
2022-11-24T00:18:37.943Z,23.83
2022-11-24T00:21:05.597Z,23.00
2022-11-24T00:23:33.278Z,23.25
2022-11-24T00:26:08.467Z,23.02
2022-11-24T00:28:36.647Z,25.85
2022-11-24T00:31:04.848Z,27.75
2022-11-24T00:33:32.774Z,24.05
2022-11-24T00:36:01.086Z,27.85
2022-11-24T00:38:28.684Z,25.73
2022-11-24T00:40:56.250Z,23.88
2022-11-24T00:43:23.945Z,25.88
2022-11-24T00:45:51.769Z,26.52
2022-11-24T00:48:19.498Z,20.90
2022-11-24T00:50:55.893Z,21.77
2022-11-24T00:53:23.516Z,19.13
2022-11-24T00:55:51.250Z,19.73
2022-11-24T00:58:18.905Z,18.33
2022-11-24T01:00:46.575Z,22.17
2022-11-24T01:03:16.886Z,20.08
2022-11-24T01:05:47.340Z,21.20
2022-11-24T01:08:15.031Z,18.10
2022-11-24T01:10:42.648Z,16.88
2022-11-24T01:13:12.084Z,18.55
2022-11-24T01:15:40.145Z,15.98
2022-11-24T01:18:07.825Z,14.75
2022-11-24T01:20:37.512Z,18.13
2022-11-24T01:23:05.212Z,17.20
2022-11-24T01:25:32.809Z,15.32
2022-11-24T01:28:00.397Z,16.67
2022-11-24T01:30:27.991Z,14.68
2022-11-24T01:33:01.685Z,16.88
2022-11-24T01:35:29.425Z,16.30
2022-11-24T01:37:57.077Z,14.68
2022-11-24T01:40:25.205Z,14.45
2022-11-24T01:42:53.655Z,15.27
2022-11-24T01:45:24.590Z,15.23
2022-11-24T01:47:52.242Z,15.20
2022-11-24T01:50:20.199Z,14.38
2022-11-24T01:52:49.300Z,15.93
2022-11-24T01:55:18.601Z,17.05
2022-11-24T01:57:49.131Z,18.23
2022-11-24T02:00:18.740Z,16.67
2022-11-24T02:02:46.571Z,12.82
2022-11-24T02:05:34.576Z,14.57
2022-11-24T02:08:02.941Z,16.27
2022-11-24T02:10:38.159Z,14.77
2022-11-24T02:13:06.139Z,13.40
2022-11-24T02:15:38.033Z,14.93
2022-11-24T02:18:05.860Z,15.20
2022-11-24T02:23:21.530Z,14.38
2022-11-24T02:25:55.319Z,13.82
2022-11-24T02:28:23.586Z,13.32
2022-11-24T02:30:51.644Z,15.57
2022-11-24T02:33:21.433Z,13.35
2022-11-24T02:35:49.217Z,15.50
2022-11-24T02:38:16.864Z,15.23
2022-11-24T02:40:46.539Z,12.95
2022-11-24T02:43:20.163Z,14.13
2022-11-24T02:45:47.920Z,12.32
2022-11-24T02:48:16.545Z,15.88
2022-11-24T02:50:44.332Z,12.68
2022-11-24T02:53:12.065Z,11.80
2022-11-24T02:55:39.601Z,21.30
2022-11-24T02:58:07.270Z,15.95
2022-11-24T03:00:34.896Z,13.32
2022-11-24T03:03:02.988Z,11.73
2022-11-24T03:05:30.570Z,13.88
2022-11-24T03:07:58.334Z,14.88
2022-11-24T03:10:26.084Z,11.25
2022-11-24T03:12:53.689Z,11.57
2022-11-24T03:15:21.273Z,13.35
2022-11-24T03:17:48.892Z,11.40
2022-11-24T03:20:16.621Z,11.30
2022-11-24T03:22:44.223Z,13.45
2022-11-24T03:25:11.856Z,13.02
2022-11-24T03:27:39.594Z,11.25
2022-11-24T03:30:07.570Z,14.68
2022-11-24T03:32:35.123Z,12.80
2022-11-24T03:35:02.749Z,11.65
2022-11-24T03:37:30.499Z,13.45
2022-11-24T03:39:58.242Z,11.93
2022-11-24T03:42:25.866Z,13.20
2022-11-24T03:44:53.413Z,10.40
2022-11-24T03:47:21.019Z,12.80
2022-11-24T03:49:48.675Z,13.82
2022-11-24T03:52:16.367Z,11.88
2022-11-24T03:54:44.025Z,12.98
2022-11-24T03:57:11.606Z,14.38
2022-11-24T03:59:39.292Z,13.15
2022-11-24T04:02:07.769Z,11.93
2022-11-24T04:04:35.542Z,12.43
2022-11-24T04:07:03.190Z,12.32
2022-11-24T04:09:30.749Z,12.02
2022-11-24T04:12:16.892Z,13.63
2022-11-24T04:14:44.535Z,12.35
2022-11-24T04:17:12.149Z,14.90
2022-11-24T04:19:42.559Z,12.07
2022-11-24T04:22:10.229Z,11.93
2022-11-24T04:24:37.831Z,10.65
2022-11-24T04:27:05.470Z,10.77
2022-11-24T04:29:33.154Z,11.20
2022-11-24T04:32:00.846Z,12.18
2022-11-24T04:34:28.473Z,11.40
2022-11-24T04:36:56.263Z,10.57
2022-11-24T04:39:28.726Z,11.63
2022-11-24T04:41:56.691Z,10.02
2022-11-24T04:44:24.321Z,12.65
2022-11-24T04:46:52.075Z,13.32
2022-11-24T04:49:19.846Z,11.90
2022-11-24T04:51:50.453Z,12.38
2022-11-24T04:54:18.078Z,15.38
2022-11-24T04:56:54.696Z,12.95
2022-11-24T04:59:22.415Z,13.02
2022-11-24T05:01:50.167Z,12.98
2022-11-24T05:04:20.366Z,16.55
2022-11-24T05:06:48.276Z,11.95
2022-11-24T05:12:33.827Z,12.30
2022-11-24T05:15:02.619Z,13.93
2022-11-24T05:17:31.075Z,13.43
2022-11-24T05:19:58.918Z,12.75
2022-11-24T05:22:27.120Z,14.20
2022-11-24T05:24:54.754Z,16.15
2022-11-24T05:27:22.334Z,14.55
2022-11-24T05:29:50.116Z,12.68
2022-11-24T05:32:17.791Z,14.63
2022-11-24T05:34:45.386Z,11.68
2022-11-24T05:37:12.929Z,12.93
2022-11-24T05:40:10.972Z,12.05
2022-11-24T05:42:46.657Z,13.57
2022-11-24T05:45:17.057Z,15.52
2022-11-24T05:47:44.993Z,13.90
2022-11-24T05:50:21.295Z,12.25
2022-11-24T05:52:49.591Z,11.85
2022-11-24T05:55:19.323Z,14.13
2022-11-24T05:57:47.240Z,14.00
2022-11-24T06:03:40.878Z,11.07
2022-11-24T06:06:08.536Z,14.27
2022-11-24T06:08:36.158Z,12.40
2022-11-24T06:11:20.675Z,12.23
2022-11-24T06:13:48.759Z,13.40
2022-11-24T06:16:48.973Z,13.23
2022-11-24T06:23:04.756Z,10.20
2022-11-24T06:25:32.301Z,11.50
2022-11-24T06:28:03.340Z,10.82
2022-11-24T06:30:31.001Z,12.27
2022-11-24T06:32:59.044Z,11.60
2022-11-24T06:35:26.851Z,13.52
2022-11-24T06:37:54.570Z,13.10
2022-11-24T06:40:22.288Z,14.18
2022-11-24T06:42:53.115Z,17.27
2022-11-24T06:45:20.737Z,16.45
2022-11-24T06:47:48.434Z,17.83
2022-11-24T06:50:16.171Z,19.77
2022-11-24T06:52:43.777Z,16.67
2022-11-24T06:55:11.368Z,18.13
2022-11-24T06:57:39.713Z,20.10
2022-11-24T07:00:11.016Z,21.20
2022-11-24T07:02:44.163Z,20.70
2022-11-24T07:05:13.509Z,18.10
2022-11-24T07:07:41.341Z,19.65
2022-11-24T07:10:09.144Z,23.92
2022-11-24T07:12:36.765Z,19.90
2022-11-24T07:15:04.535Z,22.75
2022-11-24T07:17:32.219Z,21.35
2022-11-24T07:19:59.819Z,21.88
2022-11-24T07:22:27.397Z,24.33
2022-11-24T07:24:54.959Z,24.17
2022-11-24T07:27:22.649Z,20.80
2022-11-24T07:29:50.530Z,20.95
2022-11-24T07:32:21.781Z,20.42
2022-11-24T07:34:49.401Z,19.60
2022-11-24T07:37:17.293Z,20.13
2022-11-24T07:39:44.901Z,15.65
2022-11-24T07:42:12.725Z,14.27
2022-11-24T07:44:40.706Z,15.18
2022-11-24T07:47:08.337Z,17.27
2022-11-24T07:49:36.082Z,16.88
2022-11-24T07:52:04.460Z,15.20
2022-11-24T07:54:32.319Z,16.15
2022-11-24T07:57:00.030Z,16.50
2022-11-24T07:59:28.053Z,19.52
2022-11-24T08:02:23.084Z,19.02
2022-11-24T08:04:50.688Z,20.00
2022-11-24T08:07:18.258Z,19.60
2022-11-24T08:10:11.498Z,19.00
2022-11-24T08:12:39.200Z,19.10
2022-11-24T08:15:10.861Z,19.85
2022-11-24T08:17:39.067Z,24.20
2022-11-24T08:20:07.274Z,18.42
2022-11-24T08:22:34.797Z,19.35
2022-11-24T08:25:02.424Z,17.50
2022-11-24T08:27:30.726Z,19.27
2022-11-24T08:29:58.326Z,20.00
2022-11-24T08:32:25.939Z,25.08
2022-11-24T08:34:59.512Z,21.40
2022-11-24T08:37:31.106Z,25.98
2022-11-24T08:39:58.715Z,22.95
2022-11-24T08:42:26.348Z,24.58
2022-11-24T08:44:58.980Z,22.52
2022-11-24T08:47:26.866Z,21.85
2022-11-24T08:49:54.442Z,23.30
2022-11-24T08:52:22.002Z,24.13
2022-11-24T08:54:50.348Z,24.38
2022-11-24T08:57:21.748Z,21.90
2022-11-24T08:59:49.637Z,20.90
2022-11-24T09:02:17.239Z,22.05
2022-11-24T09:04:45.724Z,20.70
2022-11-24T09:07:13.436Z,23.30
2022-11-24T09:09:41.053Z,23.60
2022-11-24T09:12:14.338Z,22.05
2022-11-24T09:14:42.395Z,25.10
2022-11-24T09:17:10.135Z,31.55
2022-11-24T09:19:37.927Z,26.60
2022-11-24T09:22:05.500Z,20.10
2022-11-24T09:24:33.238Z,20.85
2022-11-24T09:27:00.756Z,20.80
2022-11-24T09:29:28.335Z,17.67
2022-11-24T09:31:55.857Z,18.60
2022-11-24T09:34:23.414Z,17.73
2022-11-24T09:36:51.620Z,19.30
2022-11-24T09:39:19.187Z,20.08
2022-11-24T09:42:07.247Z,18.17
2022-11-24T09:44:40.913Z,20.92
2022-11-24T09:47:19.578Z,19.42
2022-11-24T09:50:19.713Z,19.17
2022-11-24T09:53:01.116Z,19.10
2022-11-24T09:55:35.473Z,23.75
2022-11-24T09:58:14.073Z,19.67
2022-11-24T10:00:42.810Z,18.70
2022-11-24T10:03:20.503Z,18.73
2022-11-24T10:05:50.584Z,18.90
2022-11-24T10:08:18.301Z,19.98
2022-11-24T10:10:53.792Z,19.52
2022-11-24T10:13:36.706Z,25.90
2022-11-24T10:16:04.393Z,23.85
2022-11-24T10:18:41.631Z,21.50
2022-11-24T10:21:21.453Z,24.00
2022-11-24T10:24:07.101Z,23.98
2022-11-24T10:26:39.028Z,21.17
2022-11-24T10:29:27.128Z,22.42
2022-11-24T10:31:56.074Z,21.95
2022-11-24T10:34:23.651Z,24.60
2022-11-24T10:37:09.723Z,21.50
2022-11-24T10:39:40.407Z,20.58
2022-11-24T10:42:16.886Z,22.30
2022-11-24T10:44:44.461Z,23.23
2022-11-24T10:47:22.886Z,23.63
2022-11-24T10:49:56.225Z,23.83
2022-11-24T10:52:25.584Z,23.33
2022-11-24T10:55:03.581Z,22.20
2022-11-24T10:57:32.805Z,26.13
2022-11-24T11:00:01.212Z,28.58
2022-11-24T11:02:30.747Z,27.05
2022-11-24T11:04:58.507Z,27.65
2022-11-24T11:07:27.019Z,26.42
2022-11-24T11:10:13.157Z,27.23
2022-11-24T11:12:44.900Z,26.85
2022-11-24T11:15:23.178Z,24.00
2022-11-24T11:17:52.551Z,26.25
2022-11-24T11:20:23.578Z,29.40
2022-11-24T11:22:51.318Z,30.58
2022-11-24T11:25:24.974Z,25.70
2022-11-24T11:27:52.534Z,25.38
2022-11-24T11:36:12.983Z,28.52
2022-11-24T11:38:41.184Z,26.50
2022-11-24T11:41:14.757Z,29.17
2022-11-24T11:43:42.478Z,29.73
2022-11-24T11:46:18.046Z,28.05
2022-11-24T11:48:46.914Z,30.70
2022-11-24T11:51:24.825Z,29.77
2022-11-24T11:54:01.761Z,28.98
2022-11-24T11:56:31.099Z,25.65
2022-11-24T11:59:07.993Z,29.60
2022-11-24T12:01:54.205Z,32.95
2022-11-24T12:04:21.847Z,29.17
2022-11-24T12:07:07.896Z,30.63
2022-11-24T12:09:37.014Z,29.33
2022-11-24T12:12:10.910Z,27.10
2022-11-24T12:14:47.639Z,28.02
2022-11-24T12:17:38.007Z,30.30
2022-11-24T12:20:23.705Z,30.40
2022-11-24T12:23:06.608Z,28.17
2022-11-24T12:25:40.770Z,30.55
2022-11-24T12:28:20.536Z,27.13
2022-11-24T12:31:17.346Z,28.92
2022-11-24T12:34:00.972Z,31.58
2022-11-24T12:36:36.925Z,31.08
2022-11-24T12:39:26.761Z,30.00
2022-11-24T12:42:03.340Z,31.00
2022-11-24T12:44:52.349Z,29.90
2022-11-24T12:47:30.974Z,29.50
2022-11-24T12:50:19.475Z,29.15
2022-11-24T12:53:02.857Z,30.65
2022-11-24T12:55:33.525Z,31.58
2022-11-24T12:58:19.846Z,29.08
2022-11-24T13:00:56.568Z,29.25
2022-11-24T13:03:33.217Z,25.98
2022-11-24T13:06:21.193Z,30.13
2022-11-24T13:08:49.105Z,26.27
2022-11-24T13:11:22.658Z,27.25
2022-11-24T13:13:59.230Z,29.02
2022-11-24T13:16:59.313Z,32.08
2022-11-24T13:19:15.900Z,28.08
2022-11-24T13:21:45.404Z,30.45
2022-11-24T13:24:20.057Z,27.55
2022-11-24T13:26:49.300Z,30.08
2022-11-24T13:29:29.081Z,26.85
2022-11-24T13:32:19.924Z,29.15
2022-11-24T13:34:54.745Z,27.83
2022-11-24T13:37:34.968Z,27.17
2022-11-24T13:40:13.526Z,26.55
2022-11-24T13:42:57.291Z,24.05
2022-11-24T13:45:40.791Z,24.30
2022-11-24T13:48:35.563Z,28.77
2022-11-24T13:51:03.153Z,30.15
2022-11-24T13:53:36.622Z,23.05
2022-11-24T13:56:06.911Z,22.83
2022-11-24T13:58:44.998Z,24.40
2022-11-24T14:01:19.180Z,25.48
2022-11-24T14:04:21.688Z,24.73
2022-11-24T14:06:37.826Z,24.65
2022-11-24T14:09:17.751Z,28.42
2022-11-24T14:11:47.406Z,22.23
2022-11-24T14:14:20.766Z,22.52
2022-11-24T14:16:48.517Z,20.33
2022-11-24T14:19:19.696Z,23.00
2022-11-24T14:21:49.615Z,22.05
2022-11-24T14:24:39.802Z,21.00
2022-11-24T14:27:14.482Z,26.30
2022-11-24T14:29:54.246Z,25.58
2022-11-24T14:32:22.261Z,19.67
2022-11-24T14:34:52.001Z,19.02
2022-11-24T14:37:20.183Z,20.90
2022-11-24T14:39:47.788Z,20.80
2022-11-24T14:42:21.550Z,21.35
2022-11-24T14:45:03.817Z,23.15
2022-11-24T14:47:32.504Z,20.75
2022-11-24T14:50:12.036Z,26.80
2022-11-24T14:52:48.169Z,24.50
2022-11-24T14:55:32.251Z,19.27
2022-11-24T14:58:00.379Z,24.65
2022-11-24T15:00:30.165Z,24.02
2022-11-24T15:03:18.193Z,25.98
2022-11-24T15:05:55.813Z,24.42
2022-11-24T15:08:24.611Z,23.92
2022-11-24T15:10:59.576Z,31.15
2022-11-24T15:13:34.390Z,28.25
2022-11-24T15:16:03.785Z,32.50
2022-11-24T15:18:31.485Z,32.15
2022-11-24T15:20:59.342Z,32.78
2022-11-24T15:23:26.988Z,25.40
2022-11-24T15:25:54.939Z,23.92
2022-11-24T15:28:26.367Z,22.58
2022-11-24T15:31:00.313Z,23.50
2022-11-24T15:33:28.232Z,24.70
2022-11-24T15:35:55.982Z,22.60
2022-11-24T15:38:23.704Z,27.40
2022-11-24T15:40:52.278Z,24.85
2022-11-24T15:43:25.913Z,23.50
2022-11-24T15:45:53.693Z,26.25
2022-11-24T15:48:21.958Z,32.15
2022-11-24T15:50:50.402Z,27.00
2022-11-24T15:53:20.422Z,28.30
2022-11-24T15:55:48.276Z,30.17
2022-11-24T15:58:16.182Z,24.48
2022-11-24T16:00:44.405Z,29.40
2022-11-24T16:03:45.723Z,39.90
2022-11-24T16:05:59.651Z,39.33
2022-11-24T16:08:27.305Z,38.80
2022-11-24T16:10:55.909Z,40.17
2022-11-24T16:13:23.444Z,40.47
2022-11-24T16:15:51.088Z,43.63
2022-11-24T16:18:18.663Z,39.72
2022-11-24T16:20:46.211Z,40.67
2022-11-24T16:23:13.777Z,39.95
2022-11-24T16:25:41.356Z,37.47
2022-11-24T16:28:08.919Z,42.47
2022-11-24T16:30:36.522Z,36.90
2022-11-24T16:33:05.618Z,38.17
2022-11-24T16:35:34.054Z,42.78
2022-11-24T16:38:01.740Z,38.95
2022-11-24T16:40:31.915Z,38.50
2022-11-24T16:43:02.782Z,37.70
2022-11-24T16:45:30.416Z,39.97
2022-11-24T16:47:58.206Z,40.35
2022-11-24T16:50:25.763Z,43.80
2022-11-24T16:52:53.465Z,40.08
2022-11-24T16:55:21.084Z,41.90
2022-11-24T16:57:49.266Z,39.42
2022-11-24T17:00:17.054Z,41.90
2022-11-24T17:02:44.834Z,43.22
2022-11-24T17:05:12.577Z,39.20
2022-11-24T17:07:43.197Z,43.97
2022-11-24T17:10:11.032Z,40.50
2022-11-24T17:12:38.675Z,37.45
2022-11-24T17:18:23.435Z,39.45
2022-11-24T17:20:49.676Z,42.63
2022-11-24T17:23:19.485Z,40.20
2022-11-24T17:25:48.396Z,45.08
2022-11-24T17:28:18.443Z,38.80
2022-11-24T17:30:50.601Z,39.80
2022-11-24T17:33:18.263Z,41.38
2022-11-24T17:35:45.848Z,44.55
2022-11-24T17:38:13.606Z,43.08
2022-11-24T17:40:41.152Z,39.25
2022-11-24T17:43:09.748Z,40.88
2022-11-24T17:45:37.341Z,37.95
2022-11-24T17:48:04.966Z,38.40
2022-11-24T17:50:32.558Z,41.58
2022-11-24T17:53:00.319Z,40.50
2022-11-24T17:55:27.899Z,43.40
2022-11-24T17:57:56.367Z,50.50
2022-11-24T18:00:24.029Z,50.75
2022-11-24T18:02:51.618Z,44.80
2022-11-24T18:05:19.285Z,41.20
2022-11-24T18:07:46.981Z,45.58
2022-11-24T18:10:14.723Z,39.97
2022-11-24T18:12:42.255Z,41.60
2022-11-24T18:15:09.976Z,44.03
2022-11-24T18:17:37.712Z,37.42
2022-11-24T18:20:05.550Z,42.78
2022-11-24T18:23:03.982Z,42.25
2022-11-24T18:25:22.465Z,39.03
2022-11-24T18:27:50.106Z,43.92
2022-11-24T18:30:17.826Z,41.08
2022-11-24T18:32:45.432Z,41.85
2022-11-24T18:35:13.064Z,40.47
2022-11-24T18:37:44.242Z,34.83
2022-11-24T18:40:12.004Z,39.45
2022-11-24T18:42:39.615Z,40.17
2022-11-24T18:45:07.949Z,35.42
2022-11-24T18:47:35.610Z,35.85
2022-11-24T18:50:03.211Z,37.88
2022-11-24T18:52:30.789Z,37.33
2022-11-24T18:55:03.745Z,40.25
2022-11-24T18:57:31.668Z,37.08
2022-11-24T18:59:59.275Z,39.33
2022-11-24T19:02:27.044Z,37.90
2022-11-24T19:04:55.077Z,43.13
2022-11-24T19:07:22.683Z,34.90
2022-11-24T19:09:50.314Z,37.75
2022-11-24T19:12:18.006Z,34.55
2022-11-24T19:14:45.549Z,36.80
2022-11-24T19:17:13.173Z,35.58
2022-11-24T19:19:40.798Z,37.78
2022-11-24T19:22:09.531Z,40.88
2022-11-24T19:24:37.372Z,37.20
2022-11-24T19:27:05.030Z,38.67
2022-11-24T19:29:32.564Z,39.30
2022-11-24T19:32:00.210Z,42.78
2022-11-24T19:34:28.030Z,41.00
2022-11-24T19:36:55.591Z,42.20
2022-11-24T19:39:23.280Z,41.45
2022-11-24T19:41:50.966Z,40.95
2022-11-24T19:44:18.558Z,44.90
2022-11-24T19:46:46.165Z,45.97
2022-11-24T19:49:13.747Z,46.17
2022-11-24T19:51:41.379Z,49.38
2022-11-24T19:54:12.801Z,51.58
2022-11-24T19:56:41.354Z,52.28
2022-11-24T19:59:08.950Z,52.13
2022-11-24T20:01:37.628Z,48.00
2022-11-24T20:04:06.752Z,47.03
2022-11-24T20:06:36.761Z,54.35
2022-11-24T20:09:05.599Z,52.30
2022-11-24T20:11:33.127Z,50.50
2022-11-24T20:14:00.774Z,51.33
2022-11-24T20:16:30.392Z,45.47
2022-11-24T20:19:02.467Z,47.03
2022-11-24T20:21:33.708Z,47.30
2022-11-24T20:24:06.277Z,48.53
2022-11-24T20:26:38.459Z,48.58
2022-11-24T20:29:06.673Z,47.50
2022-11-24T20:31:35.620Z,53.97
2022-11-24T20:34:04.632Z,55.53
2022-11-24T20:36:32.622Z,49.50
2022-11-24T20:39:01.568Z,55.03
2022-11-24T20:41:30.606Z,61.90
2022-11-24T20:43:59.805Z,60.83
2022-11-24T20:46:28.753Z,56.08
2022-11-24T20:48:56.565Z,46.72
2022-11-24T20:51:25.209Z,47.03
2022-11-24T20:53:54.159Z,46.22
2022-11-24T20:56:26.434Z,40.25
2022-11-24T20:58:57.144Z,82.95
2022-11-24T21:01:26.566Z,54.92
2022-11-24T21:03:55.391Z,45.30
2022-11-24T21:06:23.248Z,46.70
2022-11-24T21:08:51.002Z,43.05
2022-11-24T21:11:19.479Z,50.17
2022-11-24T21:13:48.765Z,58.78
2022-11-24T21:16:17.949Z,70.25
2022-11-24T21:18:47.008Z,71.80
2022-11-24T21:21:15.222Z,54.70
2022-11-24T21:23:45.209Z,137.65
2022-11-24T21:26:16.508Z,83.28
2022-11-24T21:28:45.645Z,77.35
2022-11-24T21:31:19.171Z,55.40
2022-11-24T21:33:48.318Z,48.25
2022-11-24T21:36:17.935Z,40.13
2022-11-24T21:38:50.081Z,43.95
2022-11-24T21:41:17.853Z,47.08
2022-11-24T21:43:45.502Z,43.80
2022-11-24T21:46:13.658Z,44.08
2022-11-24T21:48:42.041Z,41.90
2022-11-24T21:51:12.878Z,44.60
2022-11-24T21:53:41.250Z,41.58
2022-11-24T21:56:12.701Z,39.72
2022-11-24T21:58:47.238Z,42.38
2022-11-24T22:01:15.356Z,40.55
2022-11-24T22:03:43.277Z,41.42
2022-11-24T22:06:11.079Z,42.10
2022-11-24T22:08:39.021Z,42.45
2022-11-24T22:11:08.093Z,39.08
2022-11-24T22:13:35.689Z,37.45
2022-11-24T22:16:32.431Z,41.53
2022-11-24T22:19:00.923Z,41.17
2022-11-24T22:21:32.434Z,44.50
2022-11-24T22:24:00.742Z,44.55
2022-11-24T22:26:28.955Z,36.85
2022-11-24T22:28:57.319Z,38.60
2022-11-24T22:31:29.190Z,40.00
2022-11-24T22:33:57.352Z,41.72
2022-11-24T22:36:27.242Z,40.17
2022-11-24T22:38:55.998Z,39.92
2022-11-24T22:41:26.329Z,43.63
2022-11-24T22:43:54.168Z,39.75
2022-11-24T22:46:22.689Z,41.25
2022-11-24T22:48:52.833Z,40.42
2022-11-24T22:51:21.586Z,36.08
2022-11-24T22:53:50.035Z,42.50
2022-11-24T22:56:17.868Z,40.97
2022-11-24T22:58:45.516Z,40.65
2022-11-24T23:01:14.471Z,41.92
2022-11-24T23:03:42.663Z,36.88
2022-11-24T23:06:14.212Z,39.42
2022-11-24T23:08:42.154Z,42.03
2022-11-24T23:11:19.948Z,37.67
2022-11-24T23:13:52.474Z,39.75
2022-11-24T23:16:20.400Z,38.90
2022-11-24T23:18:52.459Z,46.67
2022-11-24T23:21:25.151Z,44.25
2022-11-24T23:23:52.965Z,41.33
2022-11-24T23:26:25.009Z,40.28
2022-11-24T23:28:52.626Z,41.13
2022-11-24T23:31:24.001Z,40.35
2022-11-24T23:33:51.633Z,43.10
2022-11-24T23:36:20.222Z,40.13
2022-11-24T23:38:48.358Z,43.42
2022-11-24T23:41:20.105Z,45.70
2022-11-24T23:43:47.868Z,40.67
2022-11-24T23:46:17.518Z,45.13
2022-11-24T23:48:45.406Z,40.53
2022-11-24T23:54:00.239Z,39.10
2022-11-24T23:56:29.346Z,39.70
2022-11-24T23:58:56.963Z,42.50
